createdAt,value
2023-05-14T00:00:13.706Z,4.645
2023-05-14T00:01:13.739Z,4.594
2023-05-14T00:02:13.856Z,4.59
2023-05-14T00:03:13.978Z,4.576
2023-05-14T00:04:13.864Z,4.577
2023-05-14T00:05:13.840Z,4.59
2023-05-14T00:06:13.873Z,4.62
2023-05-14T00:07:13.921Z,4.649
2023-05-14T00:08:13.948Z,4.679
2023-05-14T00:09:13.937Z,4.624
2023-05-14T00:10:13.971Z,4.592
2023-05-14T00:11:13.989Z,4.624
2023-05-14T00:12:14.010Z,4.624
2023-05-14T00:13:14.069Z,4.606
2023-05-14T00:14:14.060Z,4.532
2023-05-14T00:15:14.087Z,4.525
2023-05-14T00:16:14.130Z,4.502
2023-05-14T00:17:14.097Z,4.475
2023-05-14T00:18:14.130Z,4.49
2023-05-14T00:19:14.180Z,4.504
2023-05-14T00:20:14.146Z,4.471
2023-05-14T00:21:14.161Z,4.418
2023-05-14T00:22:14.169Z,4.418
2023-05-14T00:23:14.196Z,4.402
2023-05-14T00:24:14.235Z,4.37
2023-05-14T00:25:14.231Z,4.332
2023-05-14T00:26:14.268Z,4.381
2023-05-14T00:27:14.296Z,4.392
2023-05-14T00:28:14.322Z,4.375
2023-05-14T00:29:14.369Z,4.392
2023-05-14T00:30:14.381Z,4.375
2023-05-14T00:31:14.445Z,4.388
2023-05-14T00:32:14.423Z,4.407
2023-05-14T00:33:14.451Z,4.421
2023-05-14T00:34:14.496Z,4.399
2023-05-14T00:35:14.513Z,4.345
2023-05-14T00:36:14.536Z,4.363
2023-05-14T00:37:14.544Z,4.37
2023-05-14T00:38:14.576Z,4.367
2023-05-14T00:39:14.598Z,4.348
2023-05-14T00:40:14.624Z,4.364
2023-05-14T00:41:14.653Z,4.378
2023-05-14T00:42:14.675Z,4.363
2023-05-14T00:43:14.676Z,4.348
2023-05-14T00:44:14.697Z,4.302
2023-05-14T00:45:14.710Z,4.279
2023-05-14T00:46:14.790Z,4.236
2023-05-14T00:47:14.774Z,4.236
2023-05-14T00:48:14.779Z,4.268
2023-05-14T00:49:14.779Z,4.249
2023-05-14T00:50:14.782Z,4.297
2023-05-14T00:51:14.802Z,4.284
2023-05-14T00:52:14.818Z,4.284
2023-05-14T00:53:14.858Z,4.298
2023-05-14T00:54:14.880Z,4.27
2023-05-14T00:55:14.910Z,4.21
2023-05-14T00:56:14.934Z,4.225
2023-05-14T00:57:14.982Z,4.225
2023-05-14T00:58:14.995Z,4.253
2023-05-14T00:59:15.029Z,4.221
2023-05-14T01:00:15.055Z,4.22
2023-05-14T01:01:15.131Z,4.199
2023-05-14T01:02:15.100Z,4.184
2023-05-14T01:03:15.209Z,4.212
2023-05-14T01:04:15.139Z,4.227
2023-05-14T01:05:15.176Z,4.213
2023-05-14T01:06:15.184Z,4.227
2023-05-14T01:07:15.224Z,4.213
2023-05-14T01:08:15.230Z,4.185
2023-05-14T01:09:15.247Z,4.156
2023-05-14T01:10:15.280Z,4.141
2023-05-14T01:11:15.304Z,4.142
2023-05-14T01:12:15.337Z,4.142
2023-05-14T01:13:15.344Z,4.126
2023-05-14T01:14:15.367Z,4.067
2023-05-14T01:15:15.459Z,4.052
2023-05-14T01:16:15.435Z,4.053
2023-05-14T01:17:15.442Z,4.039
2023-05-14T01:18:15.439Z,3.965
2023-05-14T01:19:15.502Z,3.966
2023-05-14T01:20:15.443Z,3.98
2023-05-14T01:21:15.462Z,3.998
2023-05-14T01:22:15.493Z,4.013
2023-05-14T01:23:15.523Z,3.993
2023-05-14T01:24:15.575Z,3.956
2023-05-14T01:25:15.565Z,3.981
2023-05-14T01:26:15.623Z,4.047
2023-05-14T01:27:15.621Z,4.032
2023-05-14T01:28:15.648Z,4.035
2023-05-14T01:29:15.673Z,4.036
2023-05-14T01:30:15.700Z,3.991
2023-05-14T01:31:15.738Z,4.005
2023-05-14T01:32:15.746Z,4.005
2023-05-14T01:33:15.770Z,4.006
2023-05-14T01:34:15.799Z,4.035
2023-05-14T01:35:15.813Z,4.063
2023-05-14T01:36:15.845Z,4.077
2023-05-14T01:37:15.838Z,4.077
2023-05-14T01:38:15.858Z,4.013
2023-05-14T01:39:15.902Z,4.014
2023-05-14T01:40:15.903Z,4
2023-05-14T01:41:15.940Z,3.926
2023-05-14T01:42:15.947Z,3.929
2023-05-14T01:43:15.976Z,3.902
2023-05-14T01:44:15.978Z,3.887
2023-05-14T01:45:15.983Z,3.888
2023-05-14T01:46:16.021Z,3.892
2023-05-14T01:47:16.022Z,3.858
2023-05-14T01:48:16.038Z,3.892
2023-05-14T01:49:16.075Z,3.791
2023-05-14T01:50:16.092Z,3.805
2023-05-14T01:51:16.108Z,3.784
2023-05-14T01:52:16.138Z,3.819
2023-05-14T01:53:16.172Z,3.793
2023-05-14T01:54:16.237Z,3.789
2023-05-14T01:55:16.213Z,3.807
2023-05-14T01:56:16.268Z,3.822
2023-05-14T01:57:16.276Z,3.835
2023-05-14T01:58:16.305Z,3.817
2023-05-14T01:59:16.331Z,3.831
2023-05-14T02:00:16.350Z,3.831
2023-05-14T02:01:16.445Z,3.817
2023-05-14T02:02:16.410Z,3.83
2023-05-14T02:03:16.411Z,3.831
2023-05-14T02:04:16.477Z,3.845
2023-05-14T02:05:16.467Z,3.833
2023-05-14T02:06:16.478Z,3.746
2023-05-14T02:07:16.510Z,3.76
2023-05-14T02:08:16.525Z,3.774
2023-05-14T02:09:16.554Z,3.787
2023-05-14T02:10:16.558Z,3.788
2023-05-14T02:11:16.584Z,3.77
2023-05-14T02:12:16.608Z,3.77
2023-05-14T02:13:16.619Z,3.756
2023-05-14T02:14:16.672Z,3.775
2023-05-14T02:15:16.660Z,3.76
2023-05-14T02:16:16.691Z,3.778
2023-05-14T02:17:16.671Z,3.775
2023-05-14T02:18:16.684Z,3.728
2023-05-14T02:19:16.761Z,3.743
2023-05-14T02:20:16.737Z,3.758
2023-05-14T02:21:16.746Z,3.775
2023-05-14T02:22:16.772Z,3.784
2023-05-14T02:23:16.800Z,3.817
2023-05-14T02:24:16.825Z,3.832
2023-05-14T02:25:16.897Z,3.845
2023-05-14T02:26:16.876Z,3.858
2023-05-14T02:27:16.913Z,3.907
2023-05-14T02:28:16.925Z,3.891
2023-05-14T02:29:16.975Z,3.905
2023-05-14T02:30:16.979Z,3.92
2023-05-14T02:31:17.034Z,3.934
2023-05-14T02:32:17.095Z,3.979
2023-05-14T02:33:17.160Z,3.998
2023-05-14T02:34:17.098Z,4.026
2023-05-14T02:35:17.138Z,4.058
2023-05-14T02:36:17.136Z,4.085
2023-05-14T02:37:17.180Z,4.099
2023-05-14T02:38:17.178Z,4.142
2023-05-14T02:39:17.199Z,4.155
2023-05-14T02:40:17.223Z,4.155
2023-05-14T02:41:17.260Z,4.192
2023-05-14T02:42:17.254Z,4.205
2023-05-14T02:43:17.287Z,4.163
2023-05-14T02:44:17.323Z,4.164
2023-05-14T02:45:17.320Z,4.178
2023-05-14T02:46:17.383Z,4.177
2023-05-14T02:47:17.342Z,4.135
2023-05-14T02:48:17.351Z,4.094
2023-05-14T02:49:17.393Z,4.037
2023-05-14T02:50:17.409Z,4.023
2023-05-14T02:51:17.405Z,4.024
2023-05-14T02:52:17.423Z,4.028
2023-05-14T02:53:17.462Z,4.013
2023-05-14T02:54:17.491Z,3.97
2023-05-14T02:55:17.528Z,3.943
2023-05-14T02:56:17.530Z,3.942
2023-05-14T02:57:17.551Z,4.026
2023-05-14T02:58:17.565Z,4.066
2023-05-14T02:59:17.608Z,4.109
2023-05-14T03:00:17.627Z,4.138
2023-05-14T03:01:17.756Z,4.181
2023-05-14T03:02:17.862Z,4.226
2023-05-14T03:03:17.733Z,4.213
2023-05-14T03:04:17.733Z,4.153
2023-05-14T03:05:17.747Z,4.12
2023-05-14T03:06:17.789Z,4.137
2023-05-14T03:07:17.813Z,4.122
2023-05-14T03:08:17.826Z,4.179
2023-05-14T03:09:17.845Z,4.164
2023-05-14T03:10:17.880Z,4.178
2023-05-14T03:11:17.902Z,4.136
2023-05-14T03:12:17.904Z,4.093
2023-05-14T03:13:17.952Z,4.051
2023-05-14T03:14:17.931Z,4.035
2023-05-14T03:15:17.947Z,4.037
2023-05-14T03:16:17.975Z,4.05
2023-05-14T03:17:17.969Z,4.064
2023-05-14T03:18:17.988Z,4.107
2023-05-14T03:19:17.994Z,4.146
2023-05-14T03:20:18.023Z,4.179
2023-05-14T03:21:18.046Z,4.165
2023-05-14T03:22:18.072Z,4.138
2023-05-14T03:23:18.092Z,4.123
2023-05-14T03:24:18.116Z,4.124
2023-05-14T03:25:18.145Z,4.151
2023-05-14T03:26:18.166Z,4.184
2023-05-14T03:27:18.185Z,4.198
2023-05-14T03:28:18.215Z,4.241
2023-05-14T03:29:18.251Z,4.212
2023-05-14T03:30:18.259Z,4.203
2023-05-14T03:31:18.360Z,4.256
2023-05-14T03:32:18.313Z,4.243
2023-05-14T03:33:18.333Z,4.24
2023-05-14T03:34:18.353Z,4.226
2023-05-14T03:35:18.373Z,4.269
2023-05-14T03:36:18.391Z,4.279
2023-05-14T03:37:18.406Z,4.265
2023-05-14T03:38:18.416Z,4.311
2023-05-14T03:39:18.433Z,4.296
2023-05-14T03:40:18.447Z,4.325
2023-05-14T03:41:18.465Z,4.369
2023-05-14T03:42:18.475Z,4.44
2023-05-14T03:43:18.494Z,4.509
2023-05-14T03:44:18.498Z,4.467
2023-05-14T03:45:18.568Z,4.423
2023-05-14T03:46:18.562Z,4.395
2023-05-14T03:47:18.590Z,4.353
2023-05-14T03:48:18.692Z,4.357
2023-05-14T03:49:18.652Z,4.449
2023-05-14T03:50:18.676Z,4.478
2023-05-14T03:51:18.692Z,4.538
2023-05-14T03:52:18.726Z,4.58
2023-05-14T03:53:18.750Z,4.551
2023-05-14T03:54:18.786Z,4.551
2023-05-14T03:55:18.806Z,4.576
2023-05-14T03:56:18.827Z,4.637
2023-05-14T03:57:18.851Z,4.632
2023-05-14T03:58:18.870Z,4.684
2023-05-14T03:59:18.914Z,4.767
2023-05-14T04:00:18.926Z,4.795
2023-05-14T04:01:18.933Z,4.845
2023-05-14T04:02:19.040Z,4.845
2023-05-14T04:03:19.090Z,4.835
2023-05-14T04:04:19.053Z,4.807
2023-05-14T04:05:19.033Z,4.793
2023-05-14T04:06:19.050Z,4.806
2023-05-14T04:07:19.051Z,4.801
2023-05-14T04:08:19.076Z,4.82
2023-05-14T04:09:19.101Z,4.845
2023-05-14T04:10:19.113Z,4.817
2023-05-14T04:11:19.106Z,4.822
2023-05-14T04:12:19.118Z,4.794
2023-05-14T04:13:19.140Z,4.799
2023-05-14T04:14:19.182Z,4.866
2023-05-14T04:15:19.196Z,4.853
2023-05-14T04:16:19.239Z,4.809
2023-05-14T04:17:19.240Z,4.784
2023-05-14T04:18:19.298Z,4.77
2023-05-14T04:19:19.347Z,4.8
2023-05-14T04:20:19.333Z,4.844
2023-05-14T04:21:19.353Z,4.857
2023-05-14T04:22:19.378Z,4.899
2023-05-14T04:23:19.402Z,4.916
2023-05-14T04:24:19.428Z,4.898
2023-05-14T04:25:19.457Z,4.911
2023-05-14T04:26:19.481Z,4.908
2023-05-14T04:27:19.511Z,5.016
2023-05-14T04:28:19.592Z,5.067
2023-05-14T04:29:19.555Z,5.096
2023-05-14T04:30:19.572Z,5.08
2023-05-14T04:31:19.641Z,5.081
2023-05-14T04:32:19.621Z,5.159
2023-05-14T04:33:19.671Z,5.177
2023-05-14T04:34:19.688Z,5.19
2023-05-14T04:35:20.170Z,5.162
2023-05-14T04:36:19.704Z,5.134
2023-05-14T04:37:19.735Z,5.164
2023-05-14T04:38:19.731Z,5.195
2023-05-14T04:39:19.778Z,5.241
2023-05-14T04:40:19.784Z,5.254
2023-05-14T04:41:19.798Z,5.283
2023-05-14T04:42:19.795Z,5.325
2023-05-14T04:43:19.808Z,5.339
2023-05-14T04:44:19.814Z,5.373
2023-05-14T04:45:19.869Z,5.404
2023-05-14T04:46:19.938Z,5.384
2023-05-14T04:47:19.944Z,5.424
2023-05-14T04:48:19.936Z,5.44
2023-05-14T04:49:19.966Z,5.483
2023-05-14T04:50:19.998Z,5.543
2023-05-14T04:51:20.031Z,5.642
2023-05-14T04:52:20.030Z,5.726
2023-05-14T04:53:20.051Z,5.75
2023-05-14T04:54:20.118Z,5.768
2023-05-14T04:55:20.094Z,5.752
2023-05-14T04:56:20.113Z,5.76
2023-05-14T04:57:20.141Z,5.782
2023-05-14T04:58:20.161Z,5.773
2023-05-14T04:59:20.181Z,5.813
2023-05-14T05:00:20.196Z,5.86
2023-05-14T05:01:20.296Z,5.85
2023-05-14T05:02:20.262Z,5.868
2023-05-14T05:03:20.348Z,5.868
2023-05-14T05:04:20.365Z,5.895
2023-05-14T05:05:20.330Z,5.968
2023-05-14T05:06:20.364Z,5.953
2023-05-14T05:07:20.365Z,6.026
2023-05-14T05:08:20.381Z,5.996
2023-05-14T05:09:20.394Z,6.021
2023-05-14T05:10:20.429Z,6.069
2023-05-14T05:11:20.433Z,6.112
2023-05-14T05:12:20.455Z,6.124
2023-05-14T05:13:20.451Z,6.253
2023-05-14T05:14:20.501Z,6.326
2023-05-14T05:15:20.482Z,6.354
2023-05-14T05:16:20.568Z,6.402
2023-05-14T05:17:20.562Z,6.371
2023-05-14T05:18:20.572Z,6.361
2023-05-14T05:19:26.542Z,6.378
2023-05-14T05:20:20.686Z,6.453
2023-05-14T05:21:20.647Z,6.474
2023-05-14T05:22:20.690Z,6.543
2023-05-14T05:23:20.712Z,6.576
2023-05-14T05:24:20.737Z,6.565
2023-05-14T05:25:20.792Z,6.675
2023-05-14T05:26:20.796Z,6.73
2023-05-14T05:27:20.789Z,6.8
2023-05-14T05:28:20.818Z,6.788
2023-05-14T05:29:20.844Z,6.782
2023-05-14T05:30:20.875Z,6.836
2023-05-14T05:31:20.949Z,6.885
2023-05-14T05:32:20.950Z,6.909
2023-05-14T05:33:20.929Z,6.972
2023-05-14T05:34:20.961Z,7.102
2023-05-14T05:35:20.983Z,7.155
2023-05-14T05:36:20.995Z,7.101
2023-05-14T05:37:21.006Z,6.878
2023-05-14T05:38:21.037Z,6.639
2023-05-14T05:39:21.061Z,6.48
2023-05-14T05:40:21.119Z,6.459
2023-05-14T05:41:21.078Z,6.156
2023-05-14T05:42:21.092Z,6.23
2023-05-14T05:43:21.103Z,6.081
2023-05-14T05:44:21.116Z,5.784
2023-05-14T05:45:21.159Z,5.689
2023-05-14T05:46:21.199Z,5.443
2023-05-14T05:47:21.279Z,5.614
2023-05-14T05:48:21.217Z,5.544
2023-05-14T05:49:21.241Z,5.605
2023-05-14T05:50:21.488Z,5.757
2023-05-14T05:51:21.309Z,5.801
2023-05-14T05:52:21.314Z,5.489
2023-05-14T05:53:21.337Z,5.267
2023-05-14T05:54:21.353Z,5.622
2023-05-14T05:55:21.377Z,5.616
2023-05-14T05:56:21.397Z,5.42
2023-05-14T05:57:21.432Z,5.324
2023-05-14T05:58:21.449Z,4.95
2023-05-14T05:59:21.461Z,4.574
2023-05-14T06:00:21.683Z,4.495
2023-05-14T06:01:21.496Z,4.354
2023-05-14T06:02:21.573Z,4.119
2023-05-14T06:03:21.599Z,4.276
2023-05-14T06:04:21.559Z,4.387
2023-05-14T06:05:21.659Z,4.404
2023-05-14T06:06:21.596Z,4.361
2023-05-14T06:07:21.597Z,3.907
2023-05-14T06:08:21.606Z,3.342
2023-05-14T06:09:21.609Z,3.398
2023-05-14T06:10:21.854Z,3.457
2023-05-14T06:11:21.707Z,3.094
2023-05-14T06:12:21.690Z,3.509
2023-05-14T06:13:21.720Z,3.341
2023-05-14T06:14:21.754Z,3.452
2023-05-14T06:15:21.797Z,3.127
2023-05-14T06:16:21.822Z,2.85
2023-05-14T06:17:21.855Z,2.47
2023-05-14T06:18:21.834Z,2.489
2023-05-14T06:19:21.862Z,2.587
2023-05-14T06:20:22.120Z,2.914
2023-05-14T06:21:21.888Z,2.063
2023-05-14T06:22:21.922Z,2.05
2023-05-14T06:23:21.932Z,2.184
2023-05-14T06:24:21.961Z,2.259
2023-05-14T06:25:21.978Z,2.456
2023-05-14T06:26:21.992Z,1.715
2023-05-14T06:27:22.037Z,1.977
2023-05-14T06:28:22.034Z,2.15
2023-05-14T06:29:22.052Z,1.841
2023-05-14T06:30:22.259Z,1.68
2023-05-14T06:31:22.149Z,1.408
2023-05-14T06:32:22.216Z,1.311
2023-05-14T06:33:22.180Z,1.517
2023-05-14T06:34:22.128Z,1.463
2023-05-14T06:35:22.145Z,1.802
2023-05-14T06:36:22.212Z,2.351
2023-05-14T06:37:22.253Z,2.582
2023-05-14T06:38:22.220Z,2.52
2023-05-14T06:39:22.223Z,1.727
2023-05-14T06:40:22.593Z,2.311
2023-05-14T06:41:22.274Z,2.417
2023-05-14T06:42:22.285Z,2.753
2023-05-14T06:43:22.310Z,2.544
2023-05-14T06:44:22.334Z,2.426
2023-05-14T06:45:22.364Z,2.787
2023-05-14T06:46:22.390Z,2.543
2023-05-14T06:47:22.506Z,3.02
2023-05-14T06:48:22.527Z,2.552
2023-05-14T06:49:22.463Z,2.463
2023-05-14T06:50:22.740Z,2.698
2023-05-14T06:51:22.485Z,2.612
2023-05-14T06:52:22.515Z,2.685
2023-05-14T06:53:22.531Z,2.678
2023-05-14T06:54:22.564Z,2.811
2023-05-14T06:55:22.552Z,3.058
2023-05-14T06:56:22.584Z,2.709
2023-05-14T06:57:22.593Z,3.225
2023-05-14T06:58:22.610Z,3.516
2023-05-14T06:59:22.623Z,3.242
2023-05-14T07:00:22.880Z,3.053
2023-05-14T07:01:22.698Z,3.171
2023-05-14T07:02:22.688Z,3.381
2023-05-14T07:03:22.685Z,3.457
2023-05-14T07:04:22.737Z,3.609
2023-05-14T07:05:22.736Z,3.437
2023-05-14T07:06:22.753Z,3.603
2023-05-14T07:07:22.782Z,3.466
2023-05-14T07:08:22.821Z,3.251
2023-05-14T07:09:22.839Z,3.208
2023-05-14T07:10:23.165Z,3.654
2023-05-14T07:11:22.908Z,3.991
2023-05-14T07:12:22.927Z,4.126
2023-05-14T07:13:22.944Z,3.966
2023-05-14T07:14:22.974Z,3.654
2023-05-14T07:15:22.988Z,3.868
2023-05-14T07:16:23.025Z,3.923
2023-05-14T07:17:23.164Z,4.124
2023-05-14T07:18:23.065Z,3.875
2023-05-14T07:19:23.089Z,3.833
2023-05-14T07:20:23.374Z,3.676
2023-05-14T07:21:23.142Z,3.605
2023-05-14T07:22:23.231Z,3.628
2023-05-14T07:23:23.199Z,3.657
2023-05-14T07:24:23.215Z,3.917
2023-05-14T07:25:23.238Z,3.633
2023-05-14T07:26:23.263Z,3.91
2023-05-14T07:27:23.294Z,3.851
2023-05-14T07:28:23.317Z,3.948
2023-05-14T07:29:23.330Z,4.043
2023-05-14T07:30:23.580Z,4.122
2023-05-14T07:31:23.511Z,3.836
2023-05-14T07:32:23.392Z,3.739
2023-05-14T07:33:23.405Z,3.82
2023-05-14T07:34:23.424Z,4.042
2023-05-14T07:35:23.442Z,4.346
2023-05-14T07:36:23.468Z,4.38
2023-05-14T07:37:24.248Z,4.24
2023-05-14T07:38:23.478Z,4.073
2023-05-14T07:39:23.514Z,3.891
2023-05-14T07:40:23.681Z,4.011
2023-05-14T07:41:23.552Z,4.153
2023-05-14T07:42:34.379Z,4.13
2023-05-14T07:43:23.647Z,4.177
2023-05-14T07:44:23.649Z,4.146
2023-05-14T07:45:23.683Z,3.958
2023-05-14T07:46:23.695Z,4.146
2023-05-14T07:47:23.801Z,4.141
2023-05-14T07:48:23.840Z,4.434
2023-05-14T07:49:23.786Z,4.225
2023-05-14T07:50:24.019Z,4.06
2023-05-14T07:51:23.836Z,3.94
2023-05-14T07:52:23.862Z,4.068
2023-05-14T07:53:23.882Z,4.044
2023-05-14T07:54:23.918Z,4.163
2023-05-14T07:55:23.951Z,4.469
2023-05-14T07:56:23.957Z,4.445
2023-05-14T07:57:23.991Z,4.205
2023-05-14T07:58:24.031Z,4.156
2023-05-14T07:59:24.032Z,4.507
2023-05-14T08:00:24.328Z,4.391
2023-05-14T08:01:24.067Z,4.252
2023-05-14T08:02:24.172Z,4.471
2023-05-14T08:03:24.216Z,4.433
2023-05-14T08:04:24.166Z,4.432
2023-05-14T08:05:24.148Z,4.396
2023-05-14T08:06:24.167Z,4.294
2023-05-14T08:07:24.184Z,4.628
2023-05-14T08:08:24.195Z,4.771
2023-05-14T08:09:24.213Z,4.727
2023-05-14T08:10:24.533Z,4.638
2023-05-14T08:11:24.281Z,4.745
2023-05-14T08:12:24.262Z,4.634
2023-05-14T08:13:24.273Z,4.307
2023-05-14T08:14:24.301Z,4.132
2023-05-14T08:15:27.090Z,4.272
2023-05-14T08:16:24.377Z,4.119
2023-05-14T08:17:24.411Z,4.074
2023-05-14T08:18:24.411Z,4.146
2023-05-14T08:19:24.449Z,4.292
2023-05-14T08:20:24.741Z,4.132
2023-05-14T08:21:24.474Z,4.49
2023-05-14T08:22:24.501Z,4.387
2023-05-14T08:23:24.527Z,4.322
2023-05-14T08:24:24.555Z,4.476
2023-05-14T08:25:24.579Z,4.685
2023-05-14T08:26:24.601Z,4.74
2023-05-14T08:27:24.632Z,4.511
2023-05-14T08:28:24.638Z,4.295
2023-05-14T08:29:24.653Z,4.136
2023-05-14T08:30:24.921Z,4.136
2023-05-14T08:31:24.747Z,4.032
2023-05-14T08:32:24.711Z,3.977
2023-05-14T08:33:24.743Z,4.255
2023-05-14T08:34:24.767Z,4.05
2023-05-14T08:35:24.770Z,4.308
2023-05-14T08:36:24.773Z,4.447
2023-05-14T08:37:24.784Z,4.434
2023-05-14T08:38:24.789Z,4.412
2023-05-14T08:39:24.825Z,4.24
2023-05-14T08:40:25.078Z,4.452
2023-05-14T08:41:24.868Z,4.762
2023-05-14T08:42:24.903Z,4.356
2023-05-14T08:43:24.929Z,4.292
2023-05-14T08:44:24.969Z,4.042
2023-05-14T08:45:24.989Z,4.035
2023-05-14T08:46:25.032Z,4.363
2023-05-14T08:47:25.085Z,4.879
2023-05-14T08:48:25.134Z,5.024
2023-05-14T08:49:25.103Z,5.058
2023-05-14T08:50:25.492Z,4.552
2023-05-14T08:51:25.137Z,4.193
2023-05-14T08:52:25.160Z,4.392
2023-05-14T08:53:25.185Z,4.565
2023-05-14T08:54:25.211Z,4.684
2023-05-14T08:55:25.226Z,4.401
2023-05-14T08:56:25.240Z,4.453
2023-05-14T08:57:25.269Z,4.452
2023-05-14T08:58:25.302Z,4.553
2023-05-14T08:59:25.334Z,4.658
2023-05-14T09:00:25.802Z,4.914
2023-05-14T09:01:25.399Z,4.763
2023-05-14T09:02:25.475Z,4.312
2023-05-14T09:03:25.419Z,4.19
2023-05-14T09:04:25.448Z,4.425
2023-05-14T09:05:25.426Z,4.384
2023-05-14T09:06:25.442Z,4.292
2023-05-14T09:07:25.452Z,4.532
2023-05-14T09:08:25.460Z,4.563
2023-05-14T09:09:25.475Z,5.219
2023-05-14T09:10:25.797Z,4.754
2023-05-14T09:11:25.548Z,4.821
2023-05-14T09:12:25.558Z,5.099
2023-05-14T09:13:28.067Z,4.875
2023-05-14T09:14:25.600Z,4.607
2023-05-14T09:15:25.622Z,4.689
2023-05-14T09:16:25.694Z,5.117
2023-05-14T09:17:25.705Z,5.416
2023-05-14T09:18:25.733Z,5.868
2023-05-14T09:19:25.719Z,6.076
2023-05-14T09:20:26.213Z,5.279
2023-05-14T09:21:25.771Z,4.94
2023-05-14T09:22:25.794Z,4.764
2023-05-14T09:23:25.810Z,5.033
2023-05-14T09:24:25.843Z,4.744
2023-05-14T09:25:25.865Z,5.037
2023-05-14T09:26:25.885Z,5.062
2023-05-14T09:27:25.930Z,5.232
2023-05-14T09:28:25.946Z,4.418
2023-05-14T09:29:25.976Z,4.409
2023-05-14T09:30:26.168Z,4.947
2023-05-14T09:31:26.029Z,4.715
2023-05-14T09:32:26.023Z,4.49
2023-05-14T09:33:26.043Z,4.669
2023-05-14T09:34:26.076Z,4.849
2023-05-14T09:35:26.086Z,5.197
2023-05-14T09:36:26.094Z,5.68
2023-05-14T09:37:26.121Z,5.512
2023-05-14T09:38:26.115Z,5.054
2023-05-14T09:39:26.127Z,5.501
2023-05-14T09:40:26.316Z,4.674
2023-05-14T09:41:26.178Z,4.748
2023-05-14T09:42:26.203Z,4.516
2023-05-14T09:43:26.231Z,4.388
2023-05-14T09:44:26.271Z,4.696
2023-05-14T09:45:26.289Z,4.631
2023-05-14T09:46:26.307Z,4.465
2023-05-14T09:47:26.447Z,4.307
2023-05-14T09:48:26.420Z,4.495
2023-05-14T09:49:26.393Z,5.348
2023-05-14T09:50:26.699Z,5.415
2023-05-14T09:51:26.425Z,5.814
2023-05-14T09:52:26.448Z,6.002
2023-05-14T09:53:26.479Z,6.103
2023-05-14T09:54:26.494Z,5.352
2023-05-14T09:55:26.516Z,5.835
2023-05-14T09:56:26.535Z,5.644
2023-05-14T09:57:26.556Z,5.892
2023-05-14T09:58:26.592Z,5.669
2023-05-14T09:59:26.595Z,5.565
2023-05-14T10:00:26.747Z,5.361
2023-05-14T10:01:26.671Z,5.41
2023-05-14T10:02:26.690Z,5.213
2023-05-14T10:03:26.674Z,5.256
2023-05-14T10:04:26.728Z,5.404
2023-05-14T10:05:26.711Z,5.663
2023-05-14T10:06:26.708Z,5.578
2023-05-14T10:07:26.721Z,5.862
2023-05-14T10:08:26.751Z,5.721
2023-05-14T10:09:26.770Z,5.609
2023-05-14T10:10:27.351Z,5.828
2023-05-14T10:11:26.836Z,5.845
2023-05-14T10:12:26.866Z,5.429
2023-05-14T10:13:26.886Z,5.311
2023-05-14T10:14:46.289Z,5.809
2023-05-14T10:15:46.298Z,5.399
2023-05-14T10:16:46.327Z,6.242
2023-05-14T10:17:46.389Z,6.538
2023-05-14T10:18:46.403Z,6.754
2023-05-14T10:19:46.319Z,6.755
2023-05-14T10:20:46.334Z,7.173
2023-05-14T10:21:16.127Z,6.235
2023-05-14T10:22:16.135Z,7.009
2023-05-14T10:23:16.163Z,5.861
2023-05-14T10:24:16.187Z,6.069
2023-05-14T10:25:16.173Z,6.472
2023-05-14T10:26:16.192Z,5.997
2023-05-14T10:27:16.177Z,5.738
2023-05-14T10:28:16.187Z,5.652
2023-05-14T10:29:16.200Z,5.56
2023-05-14T10:30:16.222Z,5.368
2023-05-14T10:31:16.253Z,5.467
2023-05-14T10:32:16.225Z,5.543
2023-05-14T10:33:16.257Z,5.465
2023-05-14T10:34:16.253Z,5.433
2023-05-14T10:35:16.279Z,5.418
2023-05-14T10:36:16.295Z,5.386
2023-05-14T10:37:16.307Z,5.485
2023-05-14T10:38:16.318Z,5.446
2023-05-14T10:39:16.336Z,5.403
2023-05-14T10:40:16.351Z,5.612
2023-05-14T10:41:16.367Z,5.336
2023-05-14T10:42:16.401Z,5.276
2023-05-14T10:43:16.408Z,5.219
2023-05-14T10:44:16.437Z,5.226
2023-05-14T10:45:16.458Z,5.379
2023-05-14T10:46:16.471Z,5.435
2023-05-14T10:47:16.486Z,5.333
2023-05-14T10:48:16.533Z,5.541
2023-05-14T10:49:20.680Z,5.331
2023-05-14T10:50:16.504Z,5.358
2023-05-14T10:51:16.526Z,5.052
2023-05-14T10:52:16.517Z,5.193
2023-05-14T10:53:16.534Z,5.13
2023-05-14T10:54:16.542Z,5.243
2023-05-14T10:55:16.551Z,5.305
2023-05-14T10:56:16.559Z,5.272
2023-05-14T10:57:16.564Z,5.18
2023-05-14T10:58:16.569Z,5.194
2023-05-14T10:59:16.595Z,5.343
2023-05-14T11:00:16.606Z,5.344
2023-05-14T11:01:16.638Z,5.17
2023-05-14T11:02:16.719Z,5.173
2023-05-14T11:03:16.693Z,5.334
2023-05-14T11:04:16.799Z,5.376
2023-05-14T11:05:16.722Z,5.414
2023-05-14T11:06:16.752Z,5.431
2023-05-14T11:07:16.771Z,5.732
2023-05-14T11:08:16.792Z,5.481
2023-05-14T11:09:16.810Z,5.27
2023-05-14T11:10:16.856Z,4.971
2023-05-14T11:11:16.859Z,4.971
2023-05-14T11:12:16.892Z,5.113
2023-05-14T11:13:16.911Z,5.329
2023-05-14T11:14:16.909Z,5.332
2023-05-14T11:15:16.939Z,5.332
2023-05-14T11:17:17.079Z,5.348
2023-05-14T11:18:17.061Z,5.503
2023-05-14T11:19:17.062Z,5.503
2023-05-14T11:20:17.013Z,5.555
2023-05-14T11:21:17.046Z,5.448
2023-05-14T11:22:17.059Z,5.525
2023-05-14T11:23:17.065Z,5.737
2023-05-14T11:24:17.073Z,5.526
2023-05-14T11:25:17.121Z,5.5
2023-05-14T11:26:18.324Z,5.542
2023-05-14T11:27:17.128Z,5.356
2023-05-14T11:28:17.173Z,5.157
2023-05-14T11:29:17.160Z,5.051
2023-05-14T11:30:17.275Z,5.12
2023-05-14T11:31:17.240Z,5.429
2023-05-14T11:32:17.209Z,5.763
2023-05-14T11:33:17.327Z,5.531
2023-05-14T11:34:17.241Z,5.145
2023-05-14T11:35:17.257Z,5.298
2023-05-14T11:36:17.258Z,5.002
2023-05-14T11:37:17.276Z,5.055
2023-05-14T11:38:17.291Z,5.059
2023-05-14T11:39:17.285Z,4.976
2023-05-14T11:40:17.397Z,5.345
2023-05-14T11:41:17.305Z,5.316
2023-05-14T11:42:17.339Z,5.317
2023-05-14T11:43:17.335Z,5.276
2023-05-14T11:44:17.350Z,5.084
2023-05-14T11:45:17.370Z,5.149
2023-05-14T11:46:17.454Z,5.086
2023-05-14T11:47:17.432Z,5.188
2023-05-14T11:48:17.458Z,5.19
2023-05-14T11:49:17.493Z,5.091
2023-05-14T11:50:17.523Z,4.856
2023-05-14T11:51:17.560Z,4.862
2023-05-14T11:52:17.571Z,4.986
2023-05-14T11:53:17.585Z,4.804
2023-05-14T11:54:17.611Z,4.728
2023-05-14T11:55:17.654Z,5.106
2023-05-14T11:56:17.661Z,4.898
2023-05-14T11:57:17.680Z,4.827
2023-05-14T11:58:17.718Z,4.988
2023-05-14T11:59:17.731Z,5.144
2023-05-14T12:00:17.757Z,5.039
2023-05-14T12:01:17.846Z,5.174
2023-05-14T12:02:17.950Z,5.047
2023-05-14T12:03:17.906Z,5.044
2023-05-14T12:04:17.865Z,4.987
2023-05-14T12:05:17.833Z,5.083
2023-05-14T12:06:17.850Z,5.082
2023-05-14T12:07:17.859Z,4.929
2023-05-14T12:08:17.868Z,4.954
2023-05-14T12:09:17.878Z,5.187
2023-05-14T12:10:17.897Z,5.353
2023-05-14T12:11:17.925Z,5.404
2023-05-14T12:12:17.964Z,5.556
2023-05-14T12:13:17.985Z,5.372
2023-05-14T12:14:18.015Z,5.573
2023-05-14T12:15:18.029Z,5.225
2023-05-14T12:16:18.105Z,5.075
2023-05-14T12:17:18.169Z,5.05
2023-05-14T12:18:24.460Z,5.245
2023-05-14T12:19:18.190Z,5.3
2023-05-14T12:20:18.177Z,5.476
2023-05-14T12:21:18.190Z,5.294
2023-05-14T12:22:18.216Z,5.137
2023-05-14T12:23:18.226Z,5.113
2023-05-14T12:24:18.267Z,5.088
2023-05-14T12:25:18.278Z,5.447
2023-05-14T12:26:18.299Z,5.215
2023-05-14T12:27:18.321Z,5.513
2023-05-14T12:28:18.336Z,5.588
2023-05-14T12:29:18.360Z,5.513
2023-05-14T12:30:21.815Z,5.582
2023-05-14T12:31:18.413Z,5.339
2023-05-14T12:32:18.442Z,5.108
2023-05-14T12:33:18.438Z,4.981
2023-05-14T12:34:18.481Z,5.055
2023-05-14T12:35:18.480Z,5.29
2023-05-14T12:36:21.966Z,5.021
2023-05-14T12:37:18.499Z,5.072
2023-05-14T12:38:18.511Z,5.123
2023-05-14T12:39:18.535Z,5.175
2023-05-14T12:40:18.557Z,4.862
2023-05-14T12:41:18.706Z,4.738
2023-05-14T12:42:18.605Z,5.038
2023-05-14T12:43:18.632Z,4.97
2023-05-14T12:44:18.671Z,4.986
2023-05-14T12:45:18.698Z,4.881
2023-05-14T12:46:18.720Z,5.062
2023-05-14T12:47:18.756Z,5.09
2023-05-14T12:48:18.771Z,5.105
2023-05-14T12:49:18.796Z,5.025
2023-05-14T12:50:18.824Z,5.173
2023-05-14T12:51:18.844Z,5.084
2023-05-14T12:52:26.012Z,4.737
2023-05-14T12:53:18.890Z,4.787
2023-05-14T12:54:18.925Z,4.729
2023-05-14T12:55:18.955Z,4.88
2023-05-14T12:56:18.973Z,4.88